Time;durP1;ratioP1;P1;durP2;ratioP2;P2;SDS_P1;SDS_P2;PMS_P1;PMS_P2;Temp;Humidity;BMP_temperature;BMP_pressure;BME280_temperature;BME280_humidity;BME280_pressure;Samples;Min_cycle;Max_cycle;Signal;HPM_P1;HPM_P2
2022/09/30 00:02:14;;;;;;;15.57;5.53;;;11.10;78.30;;;;;;5114898;28;20792;-64
2022/09/30 00:04:42;;;;;;;17.07;7.20;;;11.10;78.30;;;;;;5114968;28;20551;-64
2022/09/30 00:07:09;;;;;;;13.40;6.60;;;11.10;78.30;;;;;;5114926;27;20939;-65
2022/09/30 00:09:35;;;;;;;14.67;6.83;;;11.10;78.30;;;;;;5115575;28;20453;-64
2022/09/30 00:12:02;;;;;;;20.40;6.27;;;11.10;78.30;;;;;;5115089;28;20445;-64
2022/09/30 00:14:29;;;;;;;14.77;6.03;;;11.10;78.40;;;;;;5114800;28;20485;-64
2022/09/30 00:16:56;;;;;;;16.20;5.87;;;11.00;78.40;;;;;;5114782;28;20469;-64
2022/09/30 00:19:23;;;;;;;12.07;5.90;;;11.00;78.40;;;;;;5115824;28;20442;-64
2022/09/30 00:21:51;;;;;;;17.97;5.93;;;11.00;78.50;;;;;;5114837;28;20450;-64
2022/09/30 00:24:17;;;;;;;14.10;6.07;;;11.00;78.70;;;;;;5114894;28;20455;-64
2022/09/30 00:26:44;;;;;;;19.57;5.40;;;11.00;78.70;;;;;;5114856;28;20477;-64
2022/09/30 00:29:11;;;;;;;18.00;6.07;;;11.00;78.70;;;;;;5114817;28;20817;-64
2022/09/30 00:31:38;;;;;;;11.70;5.60;;;11.00;78.80;;;;;;5114619;27;20969;-64
2022/09/30 00:34:07;;;;;;;15.27;6.10;;;10.90;78.70;;;;;;5114424;27;20440;-64
2022/09/30 00:36:36;;;;;;;15.63;6.33;;;10.90;78.70;;;;;;5114892;28;20995;-64
2022/09/30 00:39:06;;;;;;;13.20;5.57;;;10.90;78.70;;;;;;5115008;28;20471;-64
2022/09/30 00:41:33;;;;;;;14.50;6.20;;;10.90;78.80;;;;;;5114735;28;20442;-64
2022/09/30 00:44:01;;;;;;;16.23;5.80;;;10.90;78.80;;;;;;5114240;28;20455;-64
2022/09/30 00:46:35;;;;;;;14.57;5.30;;;10.90;78.90;;;;;;5113262;28;20461;-64
2022/09/30 00:49:07;;;;;;;16.53;4.87;;;10.90;78.80;;;;;;5114018;28;20921;-64
2022/09/30 00:51:37;;;;;;;24.30;5.97;;;10.80;78.60;;;;;;5114244;28;20434;-64
2022/09/30 00:54:10;;;;;;;12.10;5.67;;;10.80;78.70;;;;;;5114075;28;20432;-64
2022/09/30 00:56:41;;;;;;;14.70;4.73;;;10.80;79.00;;;;;;5113925;28;20500;-64
2022/09/30 00:59:10;;;;;;;12.00;4.67;;;10.80;79.10;;;;;;5114310;28;20440;-64
2022/09/30 01:01:39;;;;;;;12.00;4.90;;;10.80;79.20;;;;;;5114828;28;20462;-64
2022/09/30 01:04:11;;;;;;;12.83;4.97;;;10.70;79.20;;;;;;5113613;28;20820;-64
2022/09/30 01:06:38;;;;;;;15.50;4.87;;;10.70;79.30;;;;;;5113634;28;20979;-64
2022/09/30 01:09:06;;;;;;;12.27;4.70;;;10.60;79.30;;;;;;5114183;28;20449;-64
2022/09/30 01:11:33;;;;;;;11.97;5.00;;;10.60;79.30;;;;;;5114011;28;20455;-64
2022/09/30 01:14:04;;;;;;;23.10;4.83;;;10.60;79.40;;;;;;5114079;28;20448;-64
2022/09/30 01:16:47;;;;;;;12.93;4.33;;;10.60;79.50;;;;;;5113550;28;20483;-64
2022/09/30 01:19:29;;;;;;;13.07;5.23;;;10.60;79.50;;;;;;5113994;28;20439;-64
2022/09/30 01:22:26;;;;;;;17.07;5.70;;;10.50;79.40;;;;;;5113894;28;20473;-64
2022/09/30 01:25:30;;;;;;;13.27;5.23;;;10.50;79.50;;;;;;5101547;28;20482;-64
2022/09/30 01:28:26;;;;;;;11.00;5.17;;;10.50;79.60;;;;;;5114108;28;20440;-64
2022/09/30 01:31:11;;;;;;;18.00;5.00;;;10.50;79.60;;;;;;5113724;28;20458;-64
2022/09/30 01:33:46;;;;;;;17.87;6.40;;;10.50;79.60;;;;;;5113836;28;20424;-64
2022/09/30 01:36:28;;;;;;;16.70;5.67;;;10.40;79.50;;;;;;5113670;28;20487;-64
2022/09/30 01:39:03;;;;;;;17.30;5.00;;;10.40;79.50;;;;;;5113405;28;20976;-64
2022/09/30 01:41:41;;;;;;;10.47;4.67;;;10.40;79.70;;;;;;5113705;28;20427;-64
2022/09/30 01:44:14;;;;;;;8.60;4.23;;;10.40;79.70;;;;;;5113375;28;20886;-64
2022/09/30 01:46:45;;;;;;;7.47;4.67;;;10.40;79.70;;;;;;5113522;28;20476;-64
2022/09/30 01:49:20;;;;;;;9.40;4.20;;;10.30;80.00;;;;;;5113679;28;20424;-64
2022/09/30 01:51:54;;;;;;;11.90;5.40;;;10.30;80.10;;;;;;5113646;28;20859;-64
2022/09/30 01:54:26;;;;;;;9.23;4.37;;;10.30;80.20;;;;;;5113468;28;20436;-65
2022/09/30 01:56:58;;;;;;;8.20;4.20;;;10.30;80.20;;;;;;5113415;28;21039;-64
2022/09/30 01:59:29;;;;;;;10.07;4.17;;;10.30;80.20;;;;;;5117159;28;20801;-64
2022/09/30 02:02:02;;;;;;;10.10;4.70;;;10.20;80.10;;;;;;5117486;28;20460;-64
2022/09/30 02:04:33;;;;;;;16.70;4.80;;;10.20;80.20;;;;;;5117479;28;20432;-64
2022/09/30 02:07:06;;;;;;;11.00;4.87;;;10.20;80.10;;;;;;5117205;28;20554;-64
2022/09/30 02:09:38;;;;;;;13.43;5.03;;;10.20;80.10;;;;;;5117702;28;20834;-64
2022/09/30 02:12:11;;;;;;;10.13;4.73;;;10.20;80.10;;;;;;5117564;28;20431;-64
2022/09/30 02:14:43;;;;;;;13.40;4.83;;;10.10;80.10;;;;;;5116855;28;20901;-65
2022/09/30 02:17:18;;;;;;;10.23;4.17;;;10.10;80.10;;;;;;5117002;27;20898;-64
2022/09/30 02:19:47;;;;;;;9.43;4.60;;;10.10;80.30;;;;;;5117080;28;20487;-64
2022/09/30 02:22:19;;;;;;;13.77;5.07;;;10.10;80.20;;;;;;5116978;28;20448;-64
2022/09/30 02:24:51;;;;;;;12.10;5.13;;;10.10;80.30;;;;;;5116761;27;20440;-65
2022/09/30 02:27:27;;;;;;;10.63;4.60;;;10.10;80.30;;;;;;5116935;28;20797;-64
2022/09/30 02:29:57;;;;;;;20.37;5.43;;;10.00;80.20;;;;;;5112323;28;20460;-64
2022/09/30 02:32:29;;;;;;;14.73;4.90;;;10.00;80.90;;;;;;5096399;28;20548;-64
2022/09/30 02:35:04;;;;;;;14.57;6.17;;;10.00;80.40;;;;;;5095968;28;20930;-64
2022/09/30 02:37:33;;;;;;;16.37;6.03;;;;;;;;;;5096139;28;20891;-64
2022/09/30 02:40:06;;;;;;;10.90;4.33;;;9.80;81.10;;;;;;5095836;28;20472;-65
2022/09/30 02:42:34;;;;;;;12.30;5.10;;;9.90;82.40;;;;;;5096182;28;20440;-64
2022/09/30 02:45:03;;;;;;;17.20;5.27;;;9.80;82.60;;;;;;5096639;28;20495;-64
2022/09/30 02:47:41;;;;;;;10.57;4.83;;;9.90;83.00;;;;;;5096130;28;20445;-64
2022/09/30 02:50:15;;;;;;;13.57;4.23;;;9.80;82.90;;;;;;5096150;28;20443;-64
2022/09/30 02:52:54;;;;;;;12.13;5.00;;;9.80;82.90;;;;;;5096018;28;20437;-64
2022/09/30 02:55:30;;;;;;;9.37;5.07;;;9.80;83.00;;;;;;5095134;28;20898;-64
2022/09/30 02:58:04;;;;;;;15.10;6.70;;;9.80;82.90;;;;;;5095894;28;20425;-64
2022/09/30 03:00:31;;;;;;;10.40;5.03;;;9.80;83.00;;;;;;5095374;28;20459;-64
2022/09/30 03:03:02;;;;;;;10.63;4.80;;;9.80;83.20;;;;;;5095718;28;20448;-64
2022/09/30 03:05:29;;;;;;;14.50;5.47;;;9.80;83.20;;;;;;5095336;28;21009;-64
2022/09/30 03:07:56;;;;;;;13.90;5.13;;;9.80;83.10;;;;;;5095638;28;20469;-64
2022/09/30 03:10:23;;;;;;;15.77;6.37;;;9.80;83.10;;;;;;5094800;28;20560;-64
2022/09/30 03:13:10;;;;;;;11.10;5.63;;;9.80;83.20;;;;;;5095307;28;20791;-64
2022/09/30 03:15:47;;;;;;;11.67;5.33;;;9.80;83.20;;;;;;5095489;28;20483;-64
2022/09/30 03:18:35;;;;;;;11.77;4.57;;;9.70;83.20;;;;;;5095124;28;20925;-64
2022/09/30 03:21:08;;;;;;;9.90;5.13;;;9.70;83.20;;;;;;5095714;28;20432;-64
2022/09/30 03:24:14;;;;;;;12.30;4.83;;;9.70;83.50;;;;;;5095212;28;20466;-64
2022/09/30 03:26:52;;;;;;;12.47;5.40;;;9.70;83.60;;;;;;5095293;28;20477;-64
2022/09/30 03:29:26;;;;;;;7.70;4.47;;;9.70;83.80;;;;;;5095651;28;20432;-64
2022/09/30 03:32:06;;;;;;;7.50;4.77;;;9.70;83.80;;;;;;5095659;28;20429;-64
2022/09/30 03:34:42;;;;;;;11.50;5.50;;;9.70;83.80;;;;;;5095381;28;20531;-64
2022/09/30 03:37:17;;;;;;;9.20;5.23;;;9.60;83.80;;;;;;5094898;28;20557;-64
2022/09/30 03:39:55;;;;;;;14.90;5.80;;;9.70;84.10;;;;;;5094879;28;20470;-64
2022/09/30 03:42:27;;;;;;;11.77;5.77;;;9.70;84.60;;;;;;5094994;28;20435;-64
2022/09/30 03:45:00;;;;;;;8.33;5.50;;;9.60;84.60;;;;;;5094616;28;20437;-64
2022/09/30 03:47:30;;;;;;;10.47;6.07;;;9.60;84.40;;;;;;5094439;28;20470;-64
2022/09/30 03:50:02;;;;;;;10.73;5.43;;;9.60;84.50;;;;;;5094680;28;20524;-64
2022/09/30 03:52:32;;;;;;;9.40;5.93;;;9.60;84.70;;;;;;5094741;28;20553;-64
2022/09/30 03:55:02;;;;;;;10.13;5.03;;;9.60;84.90;;;;;;5094604;28;20473;-65
2022/09/30 03:57:29;;;;;;;10.70;5.80;;;9.60;84.80;;;;;;5094404;28;21006;-64
2022/09/30 03:59:56;;;;;;;15.60;6.47;;;9.60;84.70;;;;;;5094753;28;20459;-64
2022/09/30 04:02:23;;;;;;;8.40;6.60;;;9.60;84.70;;;;;;5094502;28;20461;-64
2022/09/30 04:04:50;;;;;;;10.67;6.20;;;9.60;84.70;;;;;;5094441;28;20451;-64
2022/09/30 04:07:19;;;;;;;8.40;5.43;;;9.50;84.50;;;;;;5094462;28;20442;-64
2022/09/30 04:09:46;;;;;;;11.33;6.57;;;9.50;84.40;;;;;;5094476;28;20448;-64
2022/09/30 04:12:13;;;;;;;7.30;5.93;;;9.50;84.30;;;;;;5094214;28;20919;-64
2022/09/30 04:14:40;;;;;;;6.60;5.20;;;9.50;84.50;;;;;;5094055;28;20970;-65
2022/09/30 04:17:06;;;;;;;11.67;5.67;;;9.50;84.70;;;;;;5094232;28;20483;-64
2022/09/30 04:19:37;;;;;;;10.23;6.60;;;9.50;85.10;;;;;;5094379;28;20448;-64
2022/09/30 04:22:03;;;;;;;10.20;5.30;;;9.50;85.00;;;;;;5094238;28;20439;-64
2022/09/30 04:24:32;;;;;;;11.63;5.93;;;9.50;85.00;;;;;;5094246;28;20466;-64
2022/09/30 04:26:59;;;;;;;10.70;5.80;;;9.40;84.90;;;;;;5093996;28;20478;-64
2022/09/30 04:29:26;;;;;;;15.20;6.90;;;9.40;85.20;;;;;;5094114;28;20476;-64
2022/09/30 04:31:53;;;;;;;6.67;5.50;;;9.40;85.30;;;;;;5094054;28;20468;-64
2022/09/30 04:34:20;;;;;;;7.90;5.93;;;9.40;85.30;;;;;;5094379;28;20440;-64
2022/09/30 04:36:46;;;;;;;7.70;6.47;;;9.40;85.30;;;;;;5094039;28;20484;-64
2022/09/30 04:39:13;;;;;;;8.53;5.57;;;9.40;85.30;;;;;;5096095;28;20467;-64
2022/09/30 04:41:41;;;;;;;7.10;5.17;;;9.40;85.20;;;;;;5095606;28;20448;-64
2022/09/30 04:44:08;;;;;;;7.00;5.67;;;9.30;85.00;;;;;;5094061;28;20437;-64
2022/09/30 04:46:35;;;;;;;6.07;5.57;;;9.30;85.40;;;;;;5093779;28;20467;-64
2022/09/30 04:49:03;;;;;;;8.90;5.67;;;9.20;85.70;;;;;;5093886;28;20441;-64
2022/09/30 04:51:29;;;;;;;13.00;5.93;;;9.20;85.70;;;;;;5093887;28;20448;-64
2022/09/30 04:53:57;;;;;;;7.43;5.87;;;9.20;85.80;;;;;;5093717;28;20468;-64
2022/09/30 04:56:25;;;;;;;12.43;6.70;;;9.20;85.90;;;;;;5093401;28;20525;-64
2022/09/30 04:58:53;;;;;;;10.80;6.37;;;9.20;86.80;;;;;;5093704;28;20456;-64
2022/09/30 05:01:20;;;;;;;13.27;6.17;;;9.20;86.20;;;;;;5093399;28;20955;-67
2022/09/30 05:03:47;;;;;;;10.23;5.97;;;9.20;86.50;;;;;;5093778;28;20444;-64
2022/09/30 05:06:14;;;;;;;8.57;6.20;;;9.20;86.90;;;;;;5093126;28;21013;-64
2022/09/30 05:08:42;;;;;;;7.77;5.83;;;9.30;87.00;;;;;;5093593;28;20530;-64
2022/09/30 05:11:13;;;;;;;8.20;6.40;;;9.30;87.10;;;;;;5093590;28;20436;-64
2022/09/30 05:13:40;;;;;;;7.13;6.53;;;9.20;87.50;;;;;;5093262;28;20527;-64
2022/09/30 05:16:09;;;;;;;9.50;6.60;;;9.30;88.40;;;;;;5093304;28;20487;-66
2022/09/30 05:18:36;;;;;;;17.00;7.50;;;9.30;89.40;;;;;;5093159;28;20947;-65
2022/09/30 05:21:04;;;;;;;7.63;5.77;;;9.40;90.00;;;;;;5093355;28;20594;-65
2022/09/30 05:23:31;;;;;;;6.83;6.13;;;9.30;89.70;;;;;;5093430;28;20453;-65
2022/09/30 05:25:59;;;;;;;8.60;6.83;;;9.30;89.30;;;;;;5092937;28;21001;-65
2022/09/30 05:28:26;;;;;;;11.87;6.33;;;9.20;89.10;;;;;;5093442;28;20444;-65
2022/09/30 05:30:58;;;;;;;10.63;6.70;;;9.30;89.10;;;;;;5093180;28;20472;-65
2022/09/30 05:33:27;;;;;;;6.90;6.17;;;9.30;89.00;;;;;;5096291;28;20883;-64
2022/09/30 05:35:54;;;;;;;7.03;6.10;;;9.20;88.50;;;;;;5097126;28;20468;-64
2022/09/30 05:38:20;;;;;;;11.03;5.47;;;9.20;88.30;;;;;;5097325;28;20448;-64
2022/09/30 05:40:47;;;;;;;11.63;6.37;;;9.20;88.20;;;;;;5097045;28;20437;-64
2022/09/30 05:43:14;;;;;;;8.93;6.73;;;9.20;88.20;;;;;;5097333;28;20458;-65
2022/09/30 05:45:40;;;;;;;7.57;5.93;;;9.20;88.30;;;;;;5097201;28;20484;-65
2022/09/30 05:48:07;;;;;;;14.13;7.33;;;9.20;89.30;;;;;;5097226;28;20463;-65
2022/09/30 05:50:36;;;;;;;6.37;5.77;;;9.20;88.60;;;;;;5096720;28;20826;-66
2022/09/30 05:53:02;;;;;;;11.00;6.67;;;9.20;88.50;;;;;;5097104;28;20450;-66
2022/09/30 05:55:30;;;;;;;9.20;6.53;;;9.20;88.40;;;;;;5096933;28;20472;-66
2022/09/30 05:57:57;;;;;;;7.23;6.03;;;9.20;88.60;;;;;;5097044;28;20806;-66
2022/09/30 06:00:23;;;;;;;11.00;7.07;;;9.20;88.80;;;;;;5097073;28;20453;-66
2022/09/30 06:02:53;;;;;;;9.97;7.90;;;9.30;89.20;;;;;;5097007;28;20451;-66
2022/09/30 06:05:20;;;;;;;12.50;7.83;;;9.30;89.40;;;;;;5096844;28;20476;-68
2022/09/30 06:07:49;;;;;;;17.83;9.07;;;9.30;89.80;;;;;;5096865;28;20543;-68
2022/09/30 06:10:16;;;;;;;13.63;10.00;;;9.40;90.40;;;;;;5097075;28;20877;-65
2022/09/30 06:12:42;;;;;;;16.47;11.03;;;9.40;90.70;;;;;;5097045;28;20441;-65
2022/09/30 06:15:10;;;;;;;23.33;11.60;;;9.50;91.10;;;;;;5096995;28;20479;-66
2022/09/30 06:17:36;;;;;;;14.30;7.97;;;9.50;91.30;;;;;;5097082;28;20570;-66
2022/09/30 06:20:04;;;;;;;15.03;8.50;;;9.40;91.30;;;;;;5097306;28;20453;-66
2022/09/30 06:22:34;;;;;;;13.70;8.57;;;9.40;91.60;;;;;;5097384;28;20484;-66
2022/09/30 06:25:03;;;;;;;13.67;8.93;;;9.50;91.80;;;;;;5096884;28;20476;-66
2022/09/30 06:30:11;;;;;;;14.43;8.43;;;9.40;91.70;;;;;;5097355;28;20413;-67
2022/09/30 06:32:38;;;;;;;16.80;7.37;;;9.40;91.70;;;;;;5096467;28;20966;-66
2022/09/30 06:35:05;;;;;;;10.90;7.63;;;9.40;91.70;;;;;;5096676;28;20830;-66
2022/09/30 06:37:33;;;;;;;9.67;7.17;;;9.50;91.80;;;;;;5096345;28;20476;-66
2022/09/30 06:40:03;;;;;;;13.10;7.23;;;9.50;91.90;;;;;;5095978;28;20459;-66
2022/09/30 06:42:29;;;;;;;7.73;6.03;;;9.50;92.00;;;;;;5096149;28;20440;-66
2022/09/30 06:44:56;;;;;;;8.30;6.23;;;9.60;92.10;;;;;;5094661;28;20463;-66
2022/09/30 06:47:23;;;;;;;9.70;6.93;;;9.60;92.20;;;;;;5096067;28;20859;-66
2022/09/30 06:49:51;;;;;;;8.30;6.13;;;9.70;92.30;;;;;;5095866;28;20448;-66
2022/09/30 06:52:18;;;;;;;9.60;5.80;;;9.70;92.40;;;;;;5096009;28;20471;-66
2022/09/30 06:54:46;;;;;;;9.50;7.30;;;9.80;92.50;;;;;;5095787;28;20548;-66
2022/09/30 06:57:14;;;;;;;9.80;6.50;;;9.80;92.50;;;;;;5095778;28;20483;-67
2022/09/30 06:59:41;;;;;;;8.90;7.20;;;9.90;92.50;;;;;;5095870;28;20460;-66
2022/09/30 07:02:09;;;;;;;9.93;7.27;;;9.90;92.60;;;;;;5095820;28;20907;-66
2022/09/30 07:04:36;;;;;;;8.03;7.23;;;10.00;92.10;;;;;;5095735;28;20468;-66
2022/09/30 07:07:02;;;;;;;10.83;8.17;;;10.00;92.30;;;;;;5095709;28;20468;-65
2022/09/30 07:09:30;;;;;;;7.93;7.07;;;10.10;92.70;;;;;;5111513;28;20464;-66
2022/09/30 07:11:57;;;;;;;10.00;8.20;;;10.10;92.40;;;;;;5095725;28;20965;-66
2022/09/30 07:14:25;;;;;;;8.03;6.63;;;10.20;92.50;;;;;;5095663;28;20441;-66
2022/09/30 07:16:52;;;;;;;7.47;6.63;;;10.30;92.60;;;;;;5095145;28;20502;-66
2022/09/30 07:19:21;;;;;;;8.13;7.43;;;10.40;92.50;;;;;;5095316;28;20470;-66
2022/09/30 07:21:48;;;;;;;8.50;7.33;;;10.40;92.30;;;;;;5095365;28;20552;-66
2022/09/30 07:24:15;;;;;;;9.10;7.33;;;10.50;92.20;;;;;;5112469;28;21014;-66
2022/09/30 07:26:44;;;;;;;7.63;6.73;;;10.60;92.30;;;;;;5110244;28;20812;-67
2022/09/30 07:29:11;;;;;;;8.60;6.50;;;10.70;92.30;;;;;;5095254;28;20494;-66
2022/09/30 07:31:39;;;;;;;9.57;6.77;;;10.80;92.30;;;;;;5095565;28;20554;-66
2022/09/30 07:34:08;;;;;;;8.80;7.13;;;10.90;92.10;;;;;;5095823;28;20449;-66
2022/09/30 07:36:36;;;;;;;8.80;6.00;;;10.90;91.80;;;;;;5094901;28;20497;-66
2022/09/30 07:39:05;;;;;;;9.30;7.10;;;11.00;91.70;;;;;;5094809;28;20462;-67
2022/09/30 07:41:31;;;;;;;9.30;7.40;;;11.10;91.70;;;;;;5095088;28;20454;-66
2022/09/30 07:43:58;;;;;;;12.00;7.37;;;11.20;91.60;;;;;;5095033;28;20446;-66
2022/09/30 07:46:28;;;;;;;10.53;7.90;;;11.20;91.50;;;;;;5094905;28;20462;-66
2022/09/30 07:49:00;;;;;;;9.03;6.87;;;11.30;91.40;;;;;;5094452;28;20459;-66
2022/09/30 07:51:30;;;;;;;10.70;7.20;;;11.40;91.20;;;;;;5094782;28;20525;-66
2022/09/30 07:53:58;;;;;;;9.13;6.53;;;11.50;91.30;;;;;;5094769;28;20449;-66
2022/09/30 07:56:26;;;;;;;9.50;7.83;;;11.60;91.30;;;;;;5094267;28;20479;-66
2022/09/30 07:58:54;;;;;;;9.63;7.53;;;11.60;91.20;;;;;;5094636;28;20448;-66
2022/09/30 08:01:21;;;;;;;8.30;6.27;;;11.70;91.10;;;;;;5094601;28;20504;-66
2022/09/30 08:03:51;;;;;;;9.43;7.57;;;11.80;90.80;;;;;;5094540;28;20455;-67
2022/09/30 08:06:21;;;;;;;8.43;7.53;;;11.90;90.70;;;;;;5094429;28;20470;-67
2022/09/30 08:08:47;;;;;;;9.47;7.37;;;12.10;90.70;;;;;;5094535;28;20451;-67
2022/09/30 08:11:14;;;;;;;9.63;8.10;;;12.10;90.60;;;;;;5094123;28;20453;-66
2022/09/30 08:13:41;;;;;;;13.73;9.50;;;12.20;90.60;;;;;;5094414;28;20454;-66
2022/09/30 08:16:08;;;;;;;12.83;11.07;;;12.30;90.60;;;;;;5094240;28;20486;-66
2022/09/30 08:18:35;;;;;;;13.00;11.70;;;12.40;90.50;;;;;;5108241;28;20490;-67
2022/09/30 08:21:04;;;;;;;12.70;9.93;;;12.50;90.40;;;;;;5114427;28;20969;-67
2022/09/30 08:23:32;;;;;;;12.00;9.90;;;12.50;90.40;;;;;;5114674;28;20490;-67
2022/09/30 08:26:03;;;;;;;15.33;10.63;;;12.60;90.40;;;;;;5108603;28;20481;-67
2022/09/30 08:28:31;;;;;;;14.70;13.10;;;12.70;90.50;;;;;;5094058;28;20485;-67
2022/09/30 08:31:04;;;;;;;14.20;11.60;;;12.80;90.30;;;;;;5093784;28;20504;-67
2022/09/30 08:33:31;;;;;;;16.27;12.77;;;12.90;90.20;;;;;;5093835;28;20530;-67
2022/09/30 08:36:02;;;;;;;14.80;13.20;;;12.90;90.50;;;;;;5114022;28;20999;-67
2022/09/30 08:38:29;;;;;;;17.40;13.43;;;13.00;90.30;;;;;;5114095;28;20485;-67
2022/09/30 08:41:11;;;;;;;15.90;13.07;;;13.10;90.40;;;;;;5103008;28;20463;-67
2022/09/30 08:43:47;;;;;;;16.43;14.83;;;13.20;90.20;;;;;;5093879;28;20462;-67
2022/09/30 08:46:19;;;;;;;16.93;13.80;;;13.30;90.60;;;;;;5093518;28;20480;-67
2022/09/30 08:48:56;;;;;;;16.17;14.23;;;13.40;90.60;;;;;;5093873;28;20431;-67
2022/09/30 08:51:31;;;;;;;17.40;13.40;;;13.40;90.30;;;;;;5093549;28;20431;-67
2022/09/30 08:54:01;;;;;;;16.50;13.70;;;13.40;90.60;;;;;;5093712;28;20464;-67
2022/09/30 08:56:31;;;;;;;16.47;13.33;;;13.50;90.70;;;;;;5093608;28;21009;-66
2022/09/30 08:59:11;;;;;;;14.40;13.03;;;13.60;90.60;;;;;;5093779;28;20478;-67
2022/09/30 09:01:42;;;;;;;15.70;14.00;;;13.70;90.10;;;;;;5093773;28;20440;-67
2022/09/30 09:04:09;;;;;;;14.50;12.40;;;13.70;90.00;;;;;;5093376;28;20778;-66
2022/09/30 09:06:45;;;;;;;14.87;13.23;;;13.80;89.80;;;;;;5093095;28;20463;-66
2022/09/30 09:09:31;;;;;;;14.73;13.13;;;13.90;89.80;;;;;;5093567;28;20430;-66
2022/09/30 09:12:14;;;;;;;15.60;13.93;;;14.00;89.40;;;;;;5093891;28;20455;-66
2022/09/30 09:14:52;;;;;;;15.43;13.47;;;14.10;89.60;;;;;;5093888;28;20854;-66
2022/09/30 09:17:27;;;;;;;24.13;16.93;;;14.20;89.60;;;;;;5093767;28;20479;-66
2022/09/30 09:20:00;;;;;;;19.30;15.70;;;14.30;89.90;;;;;;5094145;28;20443;-67
2022/09/30 09:22:28;;;;;;;17.03;15.37;;;14.50;90.80;;;;;;5094500;28;20443;-66
2022/09/30 09:24:56;;;;;;;23.97;15.50;;;14.60;89.50;;;;;;5094151;28;20474;-66
2022/09/30 09:27:29;;;;;;;17.17;15.37;;;14.70;89.80;;;;;;5094049;28;20444;-67
2022/09/30 09:30:05;;;;;;;18.63;16.50;;;14.80;88.00;;;;;;5093896;28;20463;-67
2022/09/30 09:32:32;;;;;;;20.37;16.60;;;14.90;87.80;;;;;;5093786;28;20480;-66
2022/09/30 09:35:04;;;;;;;20.23;15.40;;;15.00;88.40;;;;;;5096698;28;20499;-66
2022/09/30 09:40:34;;;;;;;21.13;16.80;;;15.20;85.70;;;;;;5113866;28;20446;-66
2022/09/30 09:43:17;;;;;;;18.73;16.80;;;15.40;87.60;;;;;;5113717;28;20433;-66
2022/09/30 09:45:52;;;;;;;19.57;17.50;;;15.60;86.10;;;;;;5113577;28;20474;-66
2022/09/30 09:48:19;;;;;;;16.67;14.90;;;15.80;86.10;;;;;;5113403;28;20446;-66
2022/09/30 09:51:00;;;;;;;15.77;14.17;;;16.00;84.50;;;;;;5113616;28;20456;-67
2022/09/30 09:53:40;;;;;;;17.17;15.57;;;16.30;82.30;;;;;;5113389;28;20801;-67
2022/09/30 09:56:17;;;;;;;17.70;15.87;;;16.60;81.50;;;;;;5113448;28;20466;-67
2022/09/30 09:59:08;;;;;;;17.43;15.73;;;16.90;79.70;;;;;;5103415;28;20472;-67
2022/09/30 10:01:36;;;;;;;15.03;13.37;;;17.20;78.30;;;;;;5109446;28;20461;-67
2022/09/30 10:04:09;;;;;;;14.03;12.57;;;17.50;76.70;;;;;;5093536;27;20467;-67
2022/09/30 10:06:51;;;;;;;14.73;13.33;;;17.90;75.30;;;;;;5092657;28;20858;-67
2022/09/30 10:09:30;;;;;;;16.03;13.90;;;18.40;71.10;;;;;;5093072;28;20788;-67
2022/09/30 10:12:28;;;;;;;16.17;13.03;;;18.80;68.50;;;;;;5093058;28;20469;-67
2022/09/30 10:15:03;;;;;;;14.83;13.50;;;19.10;67.10;;;;;;5093165;28;20420;-67
2022/09/30 10:17:32;;;;;;;15.60;13.87;;;19.60;66.00;;;;;;5092624;28;20857;-67
2022/09/30 10:20:03;;;;;;;17.63;13.67;;;19.90;63.20;;;;;;5096145;28;20455;-67
2022/09/30 10:22:32;;;;;;;17.10;15.37;;;20.10;60.50;;;;;;5096593;28;20518;-67
2022/09/30 10:25:20;;;;;;;15.43;12.77;;;20.40;61.50;;;;;;5096115;28;20993;-67
2022/09/30 10:27:49;;;;;;;16.50;14.90;;;20.90;58.20;;;;;;5096202;28;20437;-67
2022/09/30 10:30:43;;;;;;;13.33;12.23;;;21.40;55.80;;;;;;5101816;28;20815;-67
2022/09/30 10:33:15;;;;;;;12.93;11.77;;;21.70;55.00;;;;;;5096423;28;20464;-67
2022/09/30 10:35:53;;;;;;;14.53;13.27;;;22.10;53.50;;;;;;5099782;28;20490;-67
2022/09/30 10:38:20;;;;;;;14.50;12.27;;;22.50;51.70;;;;;;5116353;28;20498;-67
2022/09/30 10:40:50;;;;;;;14.50;13.23;;;22.90;50.30;;;;;;5105482;28;20954;-67
2022/09/30 10:43:23;;;;;;;14.53;13.30;;;23.40;48.10;;;;;;5096161;28;20483;-67
2022/09/30 10:45:52;;;;;;;11.80;10.80;;;23.30;48.10;;;;;;5096426;28;20471;-67
2022/09/30 10:48:25;;;;;;;13.20;12.10;;;23.20;48.80;;;;;;5095916;28;20470;-67
2022/09/30 10:50:53;;;;;;;13.23;11.87;;;23.40;48.50;;;;;;5096052;28;20451;-67
2022/09/30 10:53:23;;;;;;;11.30;10.30;;;23.40;46.80;;;;;;5095944;28;20444;-67
2022/09/30 10:55:50;;;;;;;12.10;10.97;;;23.10;47.10;;;;;;5096340;28;20468;-67
2022/09/30 10:58:43;;;;;;;12.47;11.27;;;22.70;47.60;;;;;;5095470;28;20483;-67
2022/09/30 11:01:20;;;;;;;12.53;11.43;;;22.20;48.60;;;;;;5095912;28;20451;-67
2022/09/30 11:03:58;;;;;;;11.00;10.10;;;21.70;49.50;;;;;;5095743;28;20801;-67
2022/09/30 11:06:25;;;;;;;9.27;7.33;;;21.90;50.80;;;;;;5095693;28;20472;-67
2022/09/30 11:08:58;;;;;;;9.77;8.37;;;22.60;48.50;;;;;;5095698;28;20620;-67
2022/09/30 11:11:28;;;;;;;8.37;7.53;;;23.30;45.70;;;;;;5095621;28;20456;-67
2022/09/30 11:13:58;;;;;;;8.50;7.70;;;23.60;45.40;;;;;;5095322;28;20829;-67
2022/09/30 11:16:33;;;;;;;7.93;7.27;;;23.70;44.80;;;;;;5095398;28;20479;-67
2022/09/30 11:19:07;;;;;;;6.50;6.00;;;24.20;43.80;;;;;;5095534;28;20476;-67
2022/09/30 11:21:42;;;;;;;6.63;6.13;;;25.00;42.50;;;;;;5095481;28;20424;-67
2022/09/30 11:24:23;;;;;;;6.43;5.93;;;25.90;39.70;;;;;;5095438;28;20439;-67
2022/09/30 11:26:57;;;;;;;6.43;5.83;;;26.70;37.80;;;;;;5095255;28;20993;-67
2022/09/30 11:29:40;;;;;;;5.43;5.03;;;27.50;36.20;;;;;;5094742;28;20433;-67
2022/09/30 11:32:18;;;;;;;5.60;5.20;;;27.90;35.50;;;;;;5095302;28;20420;-67
2022/09/30 11:34:59;;;;;;;7.10;6.17;;;28.50;34.00;;;;;;5095199;28;20431;-67
2022/09/30 11:37:36;;;;;;;5.90;5.50;;;29.10;33.00;;;;;;5095193;28;20455;-68
2022/09/30 11:40:27;;;;;;;4.80;4.40;;;29.00;32.00;;;;;;5095010;28;20463;-67
2022/09/30 11:43:01;;;;;;;5.10;4.60;;;28.80;32.50;;;;;;5094907;28;20946;-67
2022/09/30 11:45:39;;;;;;;4.97;4.50;;;28.30;32.00;;;;;;5094995;28;20878;-67
2022/09/30 11:48:23;;;;;;;5.17;4.67;;;28.30;32.20;;;;;;5095012;28;20438;-67
2022/09/30 11:50:59;;;;;;;6.63;5.40;;;28.40;31.60;;;;;;5095226;28;20433;-67
2022/09/30 11:53:35;;;;;;;4.83;4.43;;;28.50;31.70;;;;;;5094821;28;20436;-67
2022/09/30 11:56:12;;;;;;;4.43;4.10;;;28.10;32.00;;;;;;5094761;28;20468;-67
2022/09/30 11:58:43;;;;;;;4.40;4.10;;;28.00;32.10;;;;;;5094705;28;20468;-67
2022/09/30 12:01:24;;;;;;;4.00;3.70;;;28.10;32.10;;;;;;5094879;28;20932;-67
2022/09/30 12:04:00;;;;;;;4.87;4.33;;;28.20;31.60;;;;;;5095307;28;20440;-67
2022/09/30 12:06:33;;;;;;;4.40;4.00;;;28.60;31.40;;;;;;5095442;28;20478;-67
2022/09/30 12:09:07;;;;;;;3.27;2.97;;;28.70;30.70;;;;;;5095202;28;20436;-67
2022/09/30 12:11:39;;;;;;;2.97;2.77;;;29.30;31.10;;;;;;5094918;28;20436;-67
2022/09/30 12:14:15;;;;;;;5.93;4.37;;;30.10;29.60;;;;;;5094571;28;20432;-67
2022/09/30 12:16:43;;;;;;;4.57;3.30;;;30.90;27.80;;;;;;5094428;28;20475;-68
2022/09/30 12:19:19;;;;;;;6.40;4.93;;;31.30;27.30;;;;;;5094510;28;20459;-68
2022/09/30 12:21:52;;;;;;;5.53;4.40;;;31.90;26.50;;;;;;5094729;28;20466;-68
2022/09/30 12:24:25;;;;;;;5.20;4.77;;;32.20;26.10;;;;;;5094448;28;20964;-68
2022/09/30 12:26:52;;;;;;;4.83;4.10;;;32.60;25.40;;;;;;5094771;28;20470;-68
2022/09/30 12:32:47;;;;;;;6.77;6.13;;;33.40;24.80;;;;;;5095355;28;20396;-68
2022/09/30 12:35:37;;;;;;;5.67;5.17;;;33.40;23.80;;;;;;5068677;28;21004;-68
2022/09/30 12:38:19;;;;;;;6.17;5.57;;;33.70;24.40;;;;;;5093818;28;20797;-68
2022/09/30 12:41:02;;;;;;;5.60;5.20;;;34.00;23.80;;;;;;5094065;28;20426;-66
2022/09/30 12:43:59;;;;;;;5.80;5.33;;;34.40;24.30;;;;;;5093980;28;20446;-66
2022/09/30 12:46:44;;;;;;;5.70;5.10;;;34.90;23.50;;;;;;5093802;28;20471;-70
2022/09/30 12:49:18;;;;;;;5.97;5.47;;;35.30;23.40;;;;;;5094734;28;20423;-69
2022/09/30 12:51:51;;;;;;;5.30;4.80;;;35.20;22.90;;;;;;5093999;28;20930;-68
2022/09/30 12:54:21;;;;;;;6.37;5.80;;;35.20;22.90;;;;;;5093992;28;20465;-68
2022/09/30 12:56:54;;;;;;;10.50;6.30;;;34.90;22.60;;;;;;5093473;28;20587;-68
2022/09/30 12:59:27;;;;;;;6.90;6.17;;;34.70;22.80;;;;;;5093947;28;20459;-68
2022/09/30 13:01:54;;;;;;;6.10;5.60;;;34.40;22.70;;;;;;5094303;28;20427;-68
2022/09/30 13:04:36;;;;;;;6.30;5.80;;;34.00;22.70;;;;;;5093733;28;20458;-68
2022/09/30 13:07:18;;;;;;;5.87;5.47;;;33.60;23.80;;;;;;5093663;28;20468;-67
2022/09/30 13:10:21;;;;;;;8.07;6.00;;;33.00;24.10;;;;;;5093711;28;20430;-68
2022/09/30 13:12:51;;;;;;;7.90;5.73;;;32.80;24.90;;;;;;5093567;28;20443;-67
2022/09/30 13:15:42;;;;;;;5.43;5.03;;;33.10;24.60;;;;;;5093545;28;20501;-67
2022/09/30 13:18:46;;;;;;;5.53;5.03;;;33.40;23.60;;;;;;5090306;28;20466;-68